Webcam Rollhalt 06

Webcam Rollhalt 24

 

+++ FLUGPLATZFEST am 26. Juli 2020 von 10.00 – 18.00 Uhr. +++

Flugplatz - Wetter - Augsburg

[Quelle: ADDS]
METAR
EDMA 210520Z AUTO 31005KT 270V340 9999 // SCT031/// OVC036/// 03/00 Q1026 =
TAF
SR / SS: 06:14 / 16:48 UTC (Augsburg 2020-02-21)

Flugplatz - Wetter - Laupheim

[Quelle: ADDS]
METAR
ETHL 210520Z 24006KT 9999 SCT030 01/M03 Q1026 BLU+BLU+ =
ETHL 210527Z 2106/2115 26010G20KT 9999 NSW FEW030 TEMPO 2106/2108 26007KT 9999 NSW SCT025
TAF
ETHL 210527Z 2106/2115 26010G20KT 9999 NSW FEW030 TEMPO 2106/2108 26007KT 9999 NSW SCT025 =
SR / SS: 06:18 / 16:52 UTC (Laupheim 2020-02-21)

Flugplatz - Wetter - Memmingen

[Quelle: ADDS]
METAR
EDJA 210520Z 27011KT CAVOK 01/M03 Q1026 =
EDJA 210500Z 2106/2115 25012KT CAVOK TEMPO 2106/2112 29015G25KT
TAF
EDJA 210500Z 2106/2115 25012KT CAVOK TEMPO 2106/2112 29015G25KT =
SR / SS: 06:15 / 16:50 UTC (Memmingen 2020-02-21)

Flugplatz - Wetter - Neuburg/Donau

[Quelle: ADDS]
METAR
ETSN 210520Z 28014KT 9999 FEW025 03/M02 Q1025 BLU+BLU+ =
ETSN 210520Z 2106/2115 26012G22KT 9999 NSW SCT035 BKN240 BY ETGL
TAF
ETSN 210520Z 2106/2115 26012G22KT 9999 NSW SCT035 BKN240 BY ETGL =
SR / SS: 06:12 / 16:45 UTC (Neuburg 2020-02-21)

Flugplatz - Wetter - Stuttgart

[Quelle: ADDS]
METAR
EDDS 210520Z 27009KT 9999 FEW022 SCT031 03/M02 Q1027 NOSIG =
EDDS 210500Z 2106/2206 25007KT CAVOK BECMG 2117/2119 VRB03KT
TAF
EDDS 210500Z 2106/2206 25007KT CAVOK BECMG 2117/2119 VRB03KT =
SR / SS: 06:20 / 16:53 UTC (Stuttgart 2020-02-21)

Flugplatz - Wetter - Niederstetten

[Quelle: ADDS]
METAR
ETHN 210520Z 28013KT 9999 BKN028 02/M02 Q1024 BLU BLU =
ETHN 210500Z 2106/2115 26016KT 9999 NSW SCT025
TAF
ETHN 210500Z 2106/2115 26016KT 9999 NSW SCT025 =
SR / SS: 06:20 / 16:50 UTC (Niederstetten 2020-02-21)